createdAt,value
2018-09-14T00:02:03.533Z,1.33
2018-09-14T00:04:31.801Z,1.83
2018-09-14T00:07:00.083Z,2.90
2018-09-14T00:09:28.299Z,2.27
2018-09-14T00:11:56.621Z,2.70
2018-09-14T00:14:24.793Z,2.50
2018-09-14T00:16:53.175Z,2.43
2018-09-14T00:19:21.413Z,2.90
2018-09-14T00:21:49.761Z,2.90
2018-09-14T00:24:17.872Z,3.10
2018-09-14T00:26:46.185Z,1.77
2018-09-14T00:29:14.424Z,3.03
2018-09-14T00:31:42.729Z,2.97
2018-09-14T00:34:11.026Z,2.53
2018-09-14T00:36:39.349Z,1.90
2018-09-14T00:39:09.579Z,3.93
2018-09-14T00:41:38.202Z,3.20
2018-09-14T00:44:06.521Z,2.47
2018-09-14T00:46:34.841Z,2.47
2018-09-14T00:49:03.259Z,1.90
2018-09-14T00:51:31.437Z,2.40
2018-09-14T00:53:59.700Z,3.10
2018-09-14T00:56:27.890Z,2.10
2018-09-14T00:58:56.880Z,4.00
2018-09-14T01:01:25.089Z,5.47
2018-09-14T01:03:53.620Z,3.30
2018-09-14T01:06:22.004Z,3.80
2018-09-14T01:08:50.248Z,5.27
2018-09-14T01:11:18.512Z,3.83
2018-09-14T01:13:47.365Z,2.10
2018-09-14T01:16:15.608Z,3.97
2018-09-14T01:18:43.907Z,3.30
2018-09-14T01:21:12.068Z,4.07
2018-09-14T01:23:40.209Z,3.60
2018-09-14T01:26:08.979Z,4.27
2018-09-14T01:28:37.158Z,2.23
2018-09-14T01:31:05.526Z,4.33
2018-09-14T01:33:33.838Z,3.50
2018-09-14T01:36:07.583Z,3.83
2018-09-14T01:38:35.726Z,3.47
2018-09-14T01:41:03.886Z,3.53
2018-09-14T01:43:32.348Z,5.63
2018-09-14T01:46:00.555Z,3.50
2018-09-14T01:48:29.666Z,4.00
2018-09-14T01:50:57.767Z,5.57
2018-09-14T01:53:25.898Z,3.90
2018-09-14T01:55:54.406Z,4.80
2018-09-14T01:58:22.736Z,5.13
2018-09-14T02:00:50.922Z,4.37
2018-09-14T02:03:19.153Z,3.50
2018-09-14T02:05:48.003Z,5.80
2018-09-14T02:08:16.157Z,5.60
2018-09-14T02:10:44.261Z,6.90
2018-09-14T02:13:12.577Z,7.70
2018-09-14T02:15:40.737Z,6.10
2018-09-14T02:18:09.009Z,8.63
2018-09-14T02:20:37.344Z,8.60
2018-09-14T02:23:05.631Z,8.97
2018-09-14T02:25:33.924Z,8.90
2018-09-14T02:28:02.079Z,12.47
2018-09-14T02:30:30.397Z,11.53
2018-09-14T02:32:59.135Z,14.43
2018-09-14T02:35:28.407Z,14.40
2018-09-14T02:37:58.091Z,19.33
2018-09-14T02:40:26.347Z,19.13
2018-09-14T02:42:54.508Z,15.20
2018-09-14T02:45:22.671Z,16.43
2018-09-14T02:47:50.860Z,16.80
2018-09-14T02:50:19.101Z,14.00
2018-09-14T02:52:47.281Z,22.47
2018-09-14T02:55:15.685Z,17.87
2018-09-14T02:57:43.847Z,17.53
2018-09-14T03:00:12.361Z,13.73
2018-09-14T03:02:40.743Z,20.03
2018-09-14T03:05:09.379Z,18.13
2018-09-14T03:07:37.818Z,20.40
2018-09-14T03:10:06.442Z,15.97
2018-09-14T03:12:34.744Z,24.23
2018-09-14T03:15:03.258Z,15.67
2018-09-14T03:17:31.501Z,16.80
2018-09-14T03:19:59.829Z,14.90
2018-09-14T03:22:28.718Z,13.87
2018-09-14T03:24:56.857Z,16.07
2018-09-14T03:27:25.045Z,12.90
2018-09-14T03:29:53.351Z,16.30
2018-09-14T03:32:21.568Z,16.97
2018-09-14T03:34:49.811Z,13.83
2018-09-14T03:37:17.999Z,18.07
2018-09-14T03:39:46.332Z,16.77
2018-09-14T03:42:14.688Z,19.80
2018-09-14T03:44:43.017Z,20.00
2018-09-14T03:47:11.106Z,19.30
2018-09-14T03:49:39.356Z,19.00
2018-09-14T03:52:07.540Z,18.27
2018-09-14T03:54:35.789Z,20.60
2018-09-14T03:57:04.950Z,15.67
2018-09-14T03:59:35.684Z,15.57
2018-09-14T04:02:04.583Z,19.07
2018-09-14T04:04:32.956Z,22.17
2018-09-14T04:07:01.433Z,20.30
2018-09-14T04:09:29.666Z,18.07
2018-09-14T04:11:58.357Z,18.63
2018-09-14T04:14:26.756Z,20.63
2018-09-14T04:16:55.129Z,23.47
2018-09-14T04:19:23.440Z,21.07
2018-09-14T04:21:51.541Z,23.40
2018-09-14T04:24:19.705Z,22.03
2018-09-14T04:26:47.895Z,23.00
2018-09-14T04:29:16.164Z,21.70
2018-09-14T04:31:44.373Z,17.97
2018-09-14T04:34:12.613Z,22.00
2018-09-14T04:36:41.553Z,23.73
2018-09-14T04:39:10.265Z,15.23
2018-09-14T04:41:38.813Z,16.77
2018-09-14T04:44:07.034Z,25.57
2018-09-14T04:46:35.400Z,23.70
2018-09-14T04:49:03.688Z,26.97
2018-09-14T04:51:31.993Z,31.20
2018-09-14T04:54:00.186Z,28.07
2018-09-14T04:56:28.460Z,22.53
2018-09-14T04:58:56.689Z,24.93
2018-09-14T05:01:24.946Z,24.17
2018-09-14T05:03:53.200Z,33.67
2018-09-14T05:06:21.452Z,24.00
2018-09-14T05:08:49.593Z,27.60
2018-09-14T05:11:17.878Z,27.20
2018-09-14T05:13:46.050Z,32.90
2018-09-14T05:16:14.304Z,31.73
2018-09-14T05:18:42.558Z,37.43
2018-09-14T05:21:10.938Z,36.63
2018-09-14T05:23:39.122Z,34.47
2018-09-14T05:26:07.596Z,37.33
2018-09-14T05:28:36.453Z,43.23
2018-09-14T05:31:04.997Z,41.23
2018-09-14T05:33:33.499Z,38.33
2018-09-14T05:36:02.162Z,34.77
2018-09-14T05:38:30.481Z,38.80
2018-09-14T05:40:58.765Z,35.40
2018-09-14T05:43:27.409Z,28.67
2018-09-14T05:45:55.550Z,36.70
2018-09-14T05:48:23.996Z,31.13
2018-09-14T05:50:52.151Z,33.90
2018-09-14T05:53:20.447Z,34.60
2018-09-14T05:55:48.647Z,35.23
2018-09-14T05:58:16.959Z,32.33
2018-09-14T06:00:45.129Z,28.80
2018-09-14T06:03:13.467Z,32.80
2018-09-14T06:05:41.669Z,35.10
2018-09-14T06:08:09.794Z,32.93
2018-09-14T06:10:37.894Z,28.60
2018-09-14T06:13:06.286Z,32.50
2018-09-14T06:15:34.328Z,28.67
2018-09-14T06:18:02.472Z,30.57
2018-09-14T06:20:37.341Z,24.30
2018-09-14T06:23:05.757Z,31.30
2018-09-14T06:25:34.575Z,23.63
2018-09-14T06:28:02.952Z,23.00
2018-09-14T06:30:31.054Z,25.13
2018-09-14T06:32:59.184Z,23.37
2018-09-14T06:35:27.458Z,27.07
2018-09-14T06:37:55.578Z,24.27
2018-09-14T06:40:23.720Z,28.77
2018-09-14T06:42:51.878Z,18.73
2018-09-14T06:45:20.166Z,17.10
2018-09-14T06:47:48.499Z,19.40
2018-09-14T06:50:16.846Z,20.33
2018-09-14T06:52:45.203Z,17.43
2018-09-14T06:55:13.391Z,16.37
2018-09-14T06:57:41.683Z,22.37
2018-09-14T07:00:10.116Z,16.83
2018-09-14T07:02:38.448Z,16.63
2018-09-14T07:05:06.692Z,12.73
2018-09-14T07:07:35.146Z,22.20
2018-09-14T07:10:03.466Z,20.23
2018-09-14T07:12:31.764Z,18.20
2018-09-14T07:15:00.482Z,16.23
2018-09-14T07:17:28.562Z,13.07
2018-09-14T07:19:56.694Z,15.00
2018-09-14T07:22:24.848Z,14.43
2018-09-14T07:24:53.087Z,16.80
2018-09-14T07:27:21.116Z,13.27
2018-09-14T07:29:49.388Z,14.63
2018-09-14T07:32:17.563Z,10.70
2018-09-14T07:34:46.334Z,14.17
2018-09-14T07:37:14.590Z,16.07
2018-09-14T07:39:42.834Z,12.97
2018-09-14T07:42:11.091Z,17.03
2018-09-14T07:44:39.199Z,11.83
2018-09-14T07:47:07.348Z,13.20
2018-09-14T07:49:35.536Z,17.27
2018-09-14T07:52:04.011Z,13.17
2018-09-14T07:54:32.867Z,16.33
2018-09-14T07:57:01.013Z,12.37
2018-09-14T07:59:29.284Z,13.03
2018-09-14T08:01:57.435Z,9.50
2018-09-14T08:04:25.731Z,11.70
2018-09-14T08:06:53.979Z,8.43
2018-09-14T08:09:22.205Z,13.53
2018-09-14T08:11:50.384Z,14.73
2018-09-14T08:14:18.659Z,11.43
2018-09-14T08:16:47.018Z,11.47
2018-09-14T08:19:15.177Z,8.77
2018-09-14T08:21:43.603Z,9.67
2018-09-14T08:24:11.689Z,10.33
2018-09-14T08:26:40.573Z,10.63
2018-09-14T08:29:08.781Z,7.40
2018-09-14T08:31:36.996Z,13.07
2018-09-14T08:34:05.254Z,8.53
2018-09-14T08:36:33.504Z,7.70
2018-09-14T08:42:02.040Z,9.87
2018-09-14T08:44:30.268Z,10.23
2018-09-14T08:46:58.691Z,7.30
2018-09-14T08:49:26.876Z,8.67
2018-09-14T08:51:55.052Z,9.67
2018-09-14T08:54:23.192Z,8.03
2018-09-14T08:56:52.078Z,11.67
2018-09-14T08:59:20.156Z,6.83
2018-09-14T09:01:48.296Z,9.43
2018-09-14T09:04:16.578Z,7.97
2018-09-14T09:06:44.778Z,8.23
2018-09-14T09:09:13.113Z,9.67
2018-09-14T09:11:42.068Z,11.77
2018-09-14T09:14:10.260Z,6.83
2018-09-14T09:16:39.016Z,10.60
2018-09-14T09:19:07.196Z,7.77
2018-09-14T09:21:35.452Z,8.23
2018-09-14T09:24:03.536Z,9.27
2018-09-14T09:26:31.686Z,14.87
2018-09-14T09:28:59.850Z,10.90
2018-09-14T09:31:28.016Z,10.57
2018-09-14T09:33:56.232Z,9.30
2018-09-14T09:36:24.482Z,6.10
2018-09-14T09:38:52.917Z,10.10
2018-09-14T09:41:21.115Z,6.67
2018-09-14T09:43:49.318Z,7.77
2018-09-14T09:46:17.402Z,7.67
2018-09-14T09:48:45.595Z,5.60
2018-09-14T09:51:13.918Z,6.40
2018-09-14T09:53:41.936Z,6.77
2018-09-14T09:56:10.082Z,6.17
2018-09-14T09:58:38.286Z,8.23
2018-09-14T10:01:12.324Z,7.20
2018-09-14T10:03:43.399Z,8.63
2018-09-14T10:06:17.036Z,6.67
2018-09-14T10:08:45.221Z,7.73
2018-09-14T10:11:13.286Z,6.90
2018-09-14T10:13:42.101Z,6.97
2018-09-14T10:16:10.189Z,7.60
2018-09-14T10:18:38.394Z,6.07
2018-09-14T10:21:06.676Z,6.07
2018-09-14T10:23:34.876Z,5.57
2018-09-14T10:26:03.041Z,5.33
2018-09-14T10:28:31.145Z,5.47
2018-09-14T10:30:59.330Z,5.93
2018-09-14T10:33:27.556Z,5.50
2018-09-14T10:35:55.816Z,5.20
2018-09-14T10:38:23.990Z,6.20
2018-09-14T10:40:52.119Z,5.10
2018-09-14T10:43:20.203Z,4.23
2018-09-14T10:45:48.489Z,5.57
2018-09-14T10:48:16.699Z,4.23
2018-09-14T10:50:44.939Z,5.00
2018-09-14T10:53:13.223Z,5.53
2018-09-14T10:55:41.391Z,3.60
2018-09-14T10:58:09.728Z,4.83
2018-09-14T11:00:38.060Z,5.33
2018-09-14T11:03:06.253Z,4.97
2018-09-14T11:05:35.415Z,4.50
2018-09-14T11:08:03.724Z,5.67
2018-09-14T11:10:32.116Z,6.70
2018-09-14T11:13:00.306Z,4.73
2018-09-14T11:15:28.505Z,6.67
2018-09-14T11:17:57.322Z,5.23
2018-09-14T11:20:25.551Z,4.70
2018-09-14T11:22:53.587Z,4.93
2018-09-14T11:25:21.744Z,6.07
2018-09-14T11:27:49.909Z,6.37
2018-09-14T11:30:17.965Z,6.60
2018-09-14T11:32:46.077Z,5.13
2018-09-14T11:35:14.424Z,4.83
2018-09-14T11:37:42.647Z,5.67
2018-09-14T11:40:10.832Z,5.50
2018-09-14T11:42:38.966Z,5.43
2018-09-14T11:45:07.209Z,4.30
2018-09-14T11:47:35.472Z,4.37
2018-09-14T11:50:03.866Z,6.10
2018-09-14T11:52:32.748Z,9.70
2018-09-14T11:55:00.856Z,6.97
2018-09-14T11:57:28.958Z,6.57
2018-09-14T11:59:57.061Z,4.37
2018-09-14T12:02:25.438Z,8.00
2018-09-14T12:04:54.686Z,6.50
2018-09-14T12:07:23.093Z,7.93
2018-09-14T12:09:51.415Z,8.20
2018-09-14T12:12:19.670Z,5.33
2018-09-14T12:14:47.889Z,6.73
2018-09-14T12:17:16.248Z,5.00
2018-09-14T12:19:44.423Z,6.83
2018-09-14T12:22:12.683Z,4.60
2018-09-14T12:24:40.817Z,4.67
2018-09-14T12:27:09.095Z,6.80
2018-09-14T12:29:37.337Z,5.30
2018-09-14T12:32:05.615Z,5.40
2018-09-14T12:34:33.952Z,10.13
2018-09-14T12:37:02.121Z,4.23
2018-09-14T12:39:30.379Z,5.77
2018-09-14T12:41:58.580Z,4.73
2018-09-14T12:44:26.677Z,4.10
2018-09-14T12:46:54.853Z,5.00
2018-09-14T12:49:23.089Z,8.57
2018-09-14T12:51:51.270Z,7.30
2018-09-14T12:54:19.439Z,7.73
2018-09-14T12:56:47.638Z,5.40
2018-09-14T12:59:15.826Z,8.90
2018-09-14T13:01:44.172Z,7.27
2018-09-14T13:04:12.421Z,7.13
2018-09-14T13:06:40.524Z,7.00
2018-09-14T13:09:10.377Z,10.87
2018-09-14T13:11:38.996Z,6.30
2018-09-14T13:14:07.571Z,6.90
2018-09-14T13:16:35.749Z,6.87
2018-09-14T13:19:04.082Z,9.10
2018-09-14T13:21:33.536Z,7.10
2018-09-14T13:24:01.991Z,9.50
2018-09-14T13:26:30.114Z,8.60
2018-09-14T13:28:58.184Z,7.00
2018-09-14T13:31:26.322Z,8.17
2018-09-14T13:33:54.563Z,3.70
2018-09-14T13:36:22.634Z,7.37
2018-09-14T13:38:50.816Z,9.73
2018-09-14T13:41:18.999Z,9.10
2018-09-14T13:43:47.244Z,4.90
2018-09-14T13:46:15.403Z,5.80
2018-09-14T13:48:43.497Z,5.12
2018-09-14T13:51:12.226Z,4.10
2018-09-14T13:53:40.405Z,4.30
2018-09-14T13:56:08.564Z,4.65
2018-09-14T13:58:36.806Z,4.10
2018-09-14T14:01:05.121Z,5.80
2018-09-14T14:03:33.275Z,5.53
2018-09-14T14:06:01.452Z,5.07
2018-09-14T14:08:29.597Z,5.27
2018-09-14T14:10:57.693Z,6.23
2018-09-14T14:13:25.812Z,6.50
2018-09-14T14:15:53.948Z,5.70
2018-09-14T14:18:22.309Z,5.60
2018-09-14T14:20:50.489Z,6.40
2018-09-14T14:23:18.676Z,6.40
2018-09-14T14:25:47.369Z,5.57
2018-09-14T14:28:15.659Z,4.80
2018-09-14T14:30:43.952Z,6.87
2018-09-14T14:33:12.166Z,4.43
2018-09-14T14:35:40.459Z,5.87
2018-09-14T14:38:08.649Z,6.50
2018-09-14T14:40:36.869Z,5.30
2018-09-14T14:43:05.113Z,7.40
2018-09-14T14:45:33.834Z,4.33
2018-09-14T14:48:02.112Z,6.50
2018-09-14T14:50:30.422Z,4.97
2018-09-14T14:52:58.671Z,4.37
2018-09-14T14:55:26.969Z,4.43
2018-09-14T14:57:55.140Z,6.60
2018-09-14T15:00:23.352Z,4.63
2018-09-14T15:02:51.592Z,5.13
2018-09-14T15:05:19.842Z,5.53
2018-09-14T15:07:48.043Z,6.60
2018-09-14T15:10:16.309Z,5.37
2018-09-14T15:12:44.441Z,5.97
2018-09-14T15:15:12.690Z,6.20
2018-09-14T15:17:40.834Z,6.83
2018-09-14T15:20:09.069Z,5.00
2018-09-14T15:22:37.193Z,7.73
2018-09-14T15:25:05.376Z,6.43
2018-09-14T15:27:33.657Z,5.13
2018-09-14T15:30:01.884Z,8.03
2018-09-14T15:32:30.153Z,5.97
2018-09-14T15:34:58.425Z,5.13
2018-09-14T15:37:26.646Z,6.80
2018-09-14T15:39:54.894Z,6.47
2018-09-14T15:42:23.094Z,7.33
2018-09-14T15:44:51.349Z,5.93
2018-09-14T15:47:19.552Z,6.63
2018-09-14T15:49:47.720Z,5.97
2018-09-14T15:52:15.848Z,7.33
2018-09-14T15:54:43.996Z,8.23
2018-09-14T15:57:12.129Z,4.63
2018-09-14T15:59:40.248Z,9.27
2018-09-14T16:02:08.623Z,7.37
2018-09-14T16:04:36.904Z,7.97
2018-09-14T16:07:06.419Z,5.00
2018-09-14T16:09:34.560Z,6.47
2018-09-14T16:12:02.761Z,5.97
2018-09-14T16:14:30.955Z,5.90
2018-09-14T16:16:59.073Z,7.03
2018-09-14T16:19:27.257Z,3.93
2018-09-14T16:21:55.456Z,4.47
2018-09-14T16:24:23.906Z,5.93
2018-09-14T16:26:52.119Z,6.90
2018-09-14T16:29:20.305Z,9.17
2018-09-14T16:31:48.506Z,6.03
2018-09-14T16:34:16.703Z,7.50
2018-09-14T16:36:44.949Z,6.07
2018-09-14T16:39:13.113Z,9.07
2018-09-14T16:41:41.488Z,6.63
2018-09-14T16:44:10.028Z,5.97
2018-09-14T16:46:38.545Z,6.47
2018-09-14T16:49:07.483Z,5.93
2018-09-14T16:51:35.749Z,9.40
2018-09-14T16:54:03.812Z,6.53
2018-09-14T16:56:31.951Z,8.73
2018-09-14T16:59:00.144Z,6.97
2018-09-14T17:01:28.381Z,6.23
2018-09-14T17:03:56.662Z,7.37
2018-09-14T17:06:24.930Z,6.60
2018-09-14T17:08:53.149Z,6.80
2018-09-14T17:11:21.421Z,7.93
2018-09-14T17:13:49.683Z,6.30
2018-09-14T17:16:17.897Z,6.80
2018-09-14T17:18:46.166Z,6.70
2018-09-14T17:21:14.430Z,8.43
2018-09-14T17:23:42.694Z,5.37
2018-09-14T17:26:10.943Z,5.83
2018-09-14T17:28:39.098Z,6.30
2018-09-14T17:31:07.367Z,6.13
2018-09-14T17:33:35.659Z,11.37
2018-09-14T17:36:03.861Z,7.67
2018-09-14T17:38:32.073Z,8.30
2018-09-14T17:41:00.295Z,7.77
2018-09-14T17:43:28.512Z,7.23
2018-09-14T17:45:56.648Z,9.60
2018-09-14T17:48:24.826Z,7.00
2018-09-14T17:50:52.990Z,10.97
2018-09-14T17:53:21.144Z,8.03
2018-09-14T17:55:49.422Z,8.10
2018-09-14T17:58:17.671Z,9.03
2018-09-14T18:00:45.956Z,6.73
2018-09-14T18:03:14.190Z,8.47
2018-09-14T18:05:42.452Z,6.37
2018-09-14T18:08:10.581Z,7.90
2018-09-14T18:10:38.955Z,8.70
2018-09-14T18:13:07.185Z,6.47
2018-09-14T18:15:35.393Z,8.33
2018-09-14T18:18:03.602Z,8.07
2018-09-14T18:20:31.990Z,8.13
2018-09-14T18:23:00.061Z,6.53
2018-09-14T18:25:29.096Z,6.23
2018-09-14T18:27:57.495Z,5.40
2018-09-14T18:30:25.762Z,7.13
2018-09-14T18:32:54.048Z,6.37
2018-09-14T18:35:22.441Z,6.83
2018-09-14T18:37:51.593Z,10.17
2018-09-14T18:40:19.835Z,7.43
2018-09-14T18:42:48.518Z,7.20
2018-09-14T18:45:16.850Z,8.23
2018-09-14T18:47:45.032Z,8.40
2018-09-14T18:50:13.292Z,6.40
2018-09-14T18:52:41.484Z,7.70
2018-09-14T18:55:09.988Z,7.70
2018-09-14T18:57:38.235Z,9.03
2018-09-14T19:00:06.429Z,11.13
2018-09-14T19:02:34.821Z,8.60
2018-09-14T19:05:04.066Z,8.93
2018-09-14T19:07:32.621Z,8.00
2018-09-14T19:10:00.845Z,9.93
2018-09-14T19:12:29.270Z,11.37
2018-09-14T19:14:57.857Z,9.83
2018-09-14T19:17:26.384Z,8.30
2018-09-14T19:19:54.780Z,9.67
2018-09-14T19:22:23.396Z,13.63
2018-09-14T19:24:51.650Z,11.43
2018-09-14T19:27:20.121Z,10.93
2018-09-14T19:29:48.352Z,8.60
2018-09-14T19:32:16.524Z,8.07
2018-09-14T19:34:45.272Z,12.03
2018-09-14T19:37:13.482Z,9.43
2018-09-14T19:39:41.701Z,12.37
2018-09-14T19:42:10.688Z,10.77
2018-09-14T19:44:38.980Z,11.60
2018-09-14T19:47:07.483Z,11.13
2018-09-14T19:49:35.997Z,10.30
2018-09-14T19:52:04.642Z,12.40
2018-09-14T19:54:32.919Z,10.53
2018-09-14T19:57:01.478Z,8.70
2018-09-14T19:59:29.970Z,10.87
2018-09-14T20:01:58.634Z,9.67
2018-09-14T20:04:27.176Z,9.60
2018-09-14T20:06:55.757Z,12.53
2018-09-14T20:09:24.532Z,10.83
2018-09-14T20:11:52.857Z,10.17
2018-09-14T20:14:21.496Z,13.43
2018-09-14T20:16:49.905Z,10.77
2018-09-14T20:19:18.149Z,10.33
2018-09-14T20:21:46.550Z,9.43
2018-09-14T20:24:14.632Z,11.43
2018-09-14T20:26:42.864Z,10.27
2018-09-14T20:29:12.098Z,12.97
2018-09-14T20:31:40.442Z,12.77
2018-09-14T20:34:08.678Z,11.07
2018-09-14T20:36:36.965Z,14.07
2018-09-14T20:39:10.479Z,9.40
2018-09-14T20:41:38.873Z,10.37
2018-09-14T20:44:07.203Z,12.37
2018-09-14T20:46:35.566Z,10.13
2018-09-14T20:49:03.779Z,9.43
2018-09-14T20:51:31.924Z,8.90
2018-09-14T20:54:00.154Z,10.30
2018-09-14T20:56:28.331Z,7.00
2018-09-14T20:58:56.560Z,8.97
2018-09-14T21:01:24.833Z,7.83
2018-09-14T21:03:53.629Z,8.37
2018-09-14T21:06:22.012Z,11.47
2018-09-14T21:08:50.126Z,10.37
2018-09-14T21:11:18.328Z,10.33
2018-09-14T21:13:46.411Z,9.70
2018-09-14T21:16:14.500Z,10.33
2018-09-14T21:18:42.636Z,9.33
2018-09-14T21:21:10.790Z,10.83
2018-09-14T21:23:39.006Z,14.27
2018-09-14T21:26:07.235Z,11.67
2018-09-14T21:28:35.513Z,11.73
2018-09-14T21:31:03.783Z,10.63
2018-09-14T21:33:32.071Z,15.67
2018-09-14T21:36:00.184Z,11.83
2018-09-14T21:38:28.311Z,13.00
2018-09-14T21:40:56.520Z,12.07
2018-09-14T21:43:24.649Z,14.13
2018-09-14T21:45:52.981Z,11.90
2018-09-14T21:48:21.222Z,11.00
2018-09-14T21:50:49.389Z,10.40
2018-09-14T21:53:17.614Z,13.00
2018-09-14T21:55:45.969Z,9.53
2018-09-14T21:58:14.122Z,9.73
2018-09-14T22:00:47.978Z,11.07
2018-09-14T22:03:16.106Z,11.30
2018-09-14T22:05:44.232Z,12.10
2018-09-14T22:08:12.361Z,13.60
2018-09-14T22:10:40.597Z,12.70
2018-09-14T22:13:08.854Z,16.67
2018-09-14T22:15:37.030Z,12.80
2018-09-14T22:18:05.868Z,11.50
2018-09-14T22:20:34.035Z,10.77
2018-09-14T22:23:02.270Z,12.87
2018-09-14T22:25:31.737Z,13.33
2018-09-14T22:28:00.035Z,12.07
2018-09-14T22:30:28.175Z,11.23
2018-09-14T22:32:56.387Z,13.87
2018-09-14T22:35:24.742Z,12.70
2018-09-14T22:37:53.414Z,13.73
2018-09-14T22:40:21.701Z,10.83
2018-09-14T22:42:50.109Z,9.73
2018-09-14T22:45:18.439Z,8.27
2018-09-14T22:47:46.704Z,12.33
2018-09-14T22:50:14.927Z,9.33
2018-09-14T22:52:43.202Z,9.70
2018-09-14T22:55:11.460Z,10.97
2018-09-14T22:57:39.718Z,9.60
2018-09-14T23:00:08.001Z,14.63
2018-09-14T23:02:36.147Z,10.90
2018-09-14T23:05:04.383Z,12.50
2018-09-14T23:07:32.523Z,11.73
2018-09-14T23:10:00.612Z,10.60
2018-09-14T23:12:28.769Z,10.00
2018-09-14T23:14:57.115Z,11.53
2018-09-14T23:17:25.341Z,13.10
2018-09-14T23:19:53.549Z,13.27
2018-09-14T23:22:21.640Z,12.10
2018-09-14T23:24:50.493Z,10.60
2018-09-14T23:27:18.643Z,10.87
2018-09-14T23:29:46.769Z,12.50
2018-09-14T23:32:14.965Z,12.97
2018-09-14T23:34:43.106Z,12.63
2018-09-14T23:37:11.244Z,13.83
2018-09-14T23:39:39.423Z,11.90
2018-09-14T23:42:07.677Z,11.60
2018-09-14T23:44:35.793Z,13.97
2018-09-14T23:47:04.943Z,13.07
2018-09-14T23:49:33.116Z,12.37
2018-09-14T23:52:01.291Z,12.97
2018-09-14T23:54:29.459Z,13.77
2018-09-14T23:56:57.597Z,15.63
2018-09-14T23:59:25.792Z,12.67
